sensor_id;sensor_type;location;lat;lon;timestamp;P1;durP1;ratioP1;P2;durP2;ratioP2
9140;SDS011;46330;50.822;7.126;2023-01-04T00:01:19;6.43;;;1.60;;
9140;SDS011;46330;50.822;7.126;2023-01-04T00:03:48;5.75;;;1.38;;
9140;SDS011;46330;50.822;7.126;2023-01-04T00:06:17;4.07;;;1.30;;
9140;SDS011;46330;50.822;7.126;2023-01-04T00:08:45;4.35;;;1.40;;
9140;SDS011;46330;50.822;7.126;2023-01-04T00:11:13;4.50;;;1.33;;
9140;SDS011;46330;50.822;7.126;2023-01-04T00:13:45;4.00;;;1.33;;
9140;SDS011;46330;50.822;7.126;2023-01-04T00:16:15;2.97;;;1.13;;
9140;SDS011;46330;50.822;7.126;2023-01-04T00:18:44;5.43;;;1.42;;
9140;SDS011;46330;50.822;7.126;2023-01-04T00:21:12;7.28;;;1.38;;
9140;SDS011;46330;50.822;7.126;2023-01-04T00:23:42;3.35;;;1.48;;
9140;SDS011;46330;50.822;7.126;2023-01-04T00:26:12;5.82;;;1.60;;
9140;SDS011;46330;50.822;7.126;2023-01-04T00:28:41;5.68;;;1.35;;
9140;SDS011;46330;50.822;7.126;2023-01-04T00:31:20;3.25;;;1.20;;
9140;SDS011;46330;50.822;7.126;2023-01-04T00:33:49;3.42;;;1.33;;
9140;SDS011;46330;50.822;7.126;2023-01-04T00:36:19;7.40;;;1.55;;
9140;SDS011;46330;50.822;7.126;2023-01-04T00:38:47;2.42;;;1.10;;
9140;SDS011;46330;50.822;7.126;2023-01-04T00:41:32;5.07;;;1.00;;
9140;SDS011;46330;50.822;7.126;2023-01-04T00:44:21;4.20;;;1.35;;
9140;SDS011;46330;50.822;7.126;2023-01-04T00:46:50;6.22;;;1.75;;
9140;SDS011;46330;50.822;7.126;2023-01-04T00:49:18;4.35;;;1.40;;
9140;SDS011;46330;50.822;7.126;2023-01-04T00:51:46;3.70;;;0.95;;
9140;SDS011;46330;50.822;7.126;2023-01-04T00:54:14;6.75;;;1.38;;
9140;SDS011;46330;50.822;7.126;2023-01-04T00:56:43;4.95;;;1.33;;
9140;SDS011;46330;50.822;7.126;2023-01-04T00:59:11;9.95;;;1.55;;
9140;SDS011;46330;50.822;7.126;2023-01-04T01:01:41;5.82;;;1.38;;
9140;SDS011;46330;50.822;7.126;2023-01-04T01:04:11;4.10;;;1.20;;
9140;SDS011;46330;50.822;7.126;2023-01-04T01:06:40;7.38;;;1.30;;
9140;SDS011;46330;50.822;7.126;2023-01-04T01:09:09;2.47;;;1.27;;
9140;SDS011;46330;50.822;7.126;2023-01-04T01:11:37;4.28;;;1.40;;
9140;SDS011;46330;50.822;7.126;2023-01-04T01:14:05;5.68;;;1.20;;
9140;SDS011;46330;50.822;7.126;2023-01-04T01:16:34;4.43;;;1.10;;
9140;SDS011;46330;50.822;7.126;2023-01-04T01:19:23;3.67;;;0.95;;
9140;SDS011;46330;50.822;7.126;2023-01-04T01:21:52;8.20;;;1.10;;
9140;SDS011;46330;50.822;7.126;2023-01-04T01:24:22;5.80;;;1.45;;
9140;SDS011;46330;50.822;7.126;2023-01-04T01:26:49;5.07;;;1.27;;
9140;SDS011;46330;50.822;7.126;2023-01-04T01:29:17;4.25;;;1.30;;
9140;SDS011;46330;50.822;7.126;2023-01-04T01:31:45;3.33;;;1.30;;
9140;SDS011;46330;50.822;7.126;2023-01-04T01:34:13;5.72;;;1.33;;
9140;SDS011;46330;50.822;7.126;2023-01-04T01:36:42;6.72;;;1.58;;
9140;SDS011;46330;50.822;7.126;2023-01-04T01:39:10;5.28;;;1.50;;
9140;SDS011;46330;50.822;7.126;2023-01-04T01:41:38;4.97;;;1.27;;
9140;SDS011;46330;50.822;7.126;2023-01-04T01:47:07;3.78;;;1.35;;
9140;SDS011;46330;50.822;7.126;2023-01-04T01:49:40;4.70;;;1.60;;
9140;SDS011;46330;50.822;7.126;2023-01-04T01:52:12;7.15;;;1.50;;
9140;SDS011;46330;50.822;7.126;2023-01-04T01:54:45;7.25;;;1.50;;
9140;SDS011;46330;50.822;7.126;2023-01-04T01:57:16;5.03;;;1.45;;
9140;SDS011;46330;50.822;7.126;2023-01-04T01:59:47;7.53;;;1.35;;
9140;SDS011;46330;50.822;7.126;2023-01-04T02:02:18;3.65;;;1.40;;
9140;SDS011;46330;50.822;7.126;2023-01-04T02:04:47;4.30;;;1.63;;
9140;SDS011;46330;50.822;7.126;2023-01-04T02:07:19;2.22;;;1.10;;
9140;SDS011;46330;50.822;7.126;2023-01-04T02:09:51;5.55;;;1.73;;
9140;SDS011;46330;50.822;7.126;2023-01-04T02:12:19;4.88;;;1.60;;
9140;SDS011;46330;50.822;7.126;2023-01-04T02:14:48;5.25;;;1.70;;
9140;SDS011;46330;50.822;7.126;2023-01-04T02:17:21;6.65;;;1.65;;
9140;SDS011;46330;50.822;7.126;2023-01-04T02:26:23;4.22;;;1.60;;
9140;SDS011;46330;50.822;7.126;2023-01-04T02:29:28;9.07;;;1.50;;
9140;SDS011;46330;50.822;7.126;2023-01-04T02:32:10;6.93;;;1.67;;
9140;SDS011;46330;50.822;7.126;2023-01-04T02:34:46;6.85;;;1.67;;
9140;SDS011;46330;50.822;7.126;2023-01-04T02:37:27;5.80;;;1.88;;
9140;SDS011;46330;50.822;7.126;2023-01-04T02:40:07;5.82;;;1.60;;
9140;SDS011;46330;50.822;7.126;2023-01-04T02:42:44;7.38;;;1.73;;
9140;SDS011;46330;50.822;7.126;2023-01-04T02:45:43;6.53;;;1.75;;
9140;SDS011;46330;50.822;7.126;2023-01-04T02:48:16;6.43;;;1.70;;
9140;SDS011;46330;50.822;7.126;2023-01-04T02:51:01;5.07;;;1.55;;
9140;SDS011;46330;50.822;7.126;2023-01-04T02:53:30;7.07;;;1.35;;
9140;SDS011;46330;50.822;7.126;2023-01-04T02:56:07;3.92;;;1.40;;
9140;SDS011;46330;50.822;7.126;2023-01-04T02:58:48;5.78;;;1.90;;
9140;SDS011;46330;50.822;7.126;2023-01-04T03:01:26;6.30;;;1.60;;
9140;SDS011;46330;50.822;7.126;2023-01-04T03:04:29;6.60;;;1.70;;
9140;SDS011;46330;50.822;7.126;2023-01-04T03:07:23;5.00;;;1.42;;
9140;SDS011;46330;50.822;7.126;2023-01-04T03:09:56;5.90;;;1.60;;
9140;SDS011;46330;50.822;7.126;2023-01-04T03:12:30;6.03;;;1.50;;
9140;SDS011;46330;50.822;7.126;2023-01-04T03:15:07;7.45;;;1.40;;
9140;SDS011;46330;50.822;7.126;2023-01-04T03:17:40;8.52;;;1.75;;
9140;SDS011;46330;50.822;7.126;2023-01-04T03:20:13;5.22;;;1.33;;
9140;SDS011;46330;50.822;7.126;2023-01-04T03:22:45;3.50;;;1.02;;
9140;SDS011;46330;50.822;7.126;2023-01-04T03:25:35;3.38;;;1.33;;
9140;SDS011;46330;50.822;7.126;2023-01-04T03:28:25;5.93;;;1.00;;
9140;SDS011;46330;50.822;7.126;2023-01-04T03:31:17;19.45;;;5.13;;
9140;SDS011;46330;50.822;7.126;2023-01-04T03:34:05;4.75;;;1.40;;
9140;SDS011;46330;50.822;7.126;2023-01-04T03:36:55;3.17;;;1.17;;
9140;SDS011;46330;50.822;7.126;2023-01-04T03:39:48;5.50;;;1.30;;
9140;SDS011;46330;50.822;7.126;2023-01-04T03:45:35;1.15;;;0.68;;
9140;SDS011;46330;50.822;7.126;2023-01-04T03:48:28;6.13;;;1.23;;
9140;SDS011;46330;50.822;7.126;2023-01-04T03:51:04;1.25;;;0.77;;
9140;SDS011;46330;50.822;7.126;2023-01-04T03:53:45;2.55;;;1.00;;
9140;SDS011;46330;50.822;7.126;2023-01-04T03:56:20;2.53;;;1.00;;
9140;SDS011;46330;50.822;7.126;2023-01-04T03:58:50;2.35;;;0.82;;
9140;SDS011;46330;50.822;7.126;2023-01-04T04:01:20;4.78;;;1.40;;
9140;SDS011;46330;50.822;7.126;2023-01-04T04:03:50;5.07;;;2.30;;
9140;SDS011;46330;50.822;7.126;2023-01-04T04:06:35;2.53;;;1.17;;
9140;SDS011;46330;50.822;7.126;2023-01-04T04:09:22;1.67;;;0.75;;
9140;SDS011;46330;50.822;7.126;2023-01-04T04:11:50;3.10;;;0.80;;
9140;SDS011;46330;50.822;7.126;2023-01-04T04:14:18;2.35;;;0.95;;
9140;SDS011;46330;50.822;7.126;2023-01-04T04:16:45;1.60;;;0.80;;
9140;SDS011;46330;50.822;7.126;2023-01-04T04:19:13;2.97;;;0.70;;
9140;SDS011;46330;50.822;7.126;2023-01-04T04:21:41;3.15;;;0.77;;
9140;SDS011;46330;50.822;7.126;2023-01-04T04:24:09;2.30;;;0.63;;
9140;SDS011;46330;50.822;7.126;2023-01-04T04:26:45;1.85;;;0.60;;
9140;SDS011;46330;50.822;7.126;2023-01-04T04:29:13;1.30;;;0.70;;
9140;SDS011;46330;50.822;7.126;2023-01-04T04:31:41;1.20;;;0.50;;
9140;SDS011;46330;50.822;7.126;2023-01-04T04:34:09;1.10;;;0.70;;
9140;SDS011;46330;50.822;7.126;2023-01-04T04:36:37;0.60;;;0.60;;
9140;SDS011;46330;50.822;7.126;2023-01-04T04:39:05;2.97;;;0.60;;
9140;SDS011;46330;50.822;7.126;2023-01-04T04:41:33;0.65;;;0.50;;
9140;SDS011;46330;50.822;7.126;2023-01-04T04:44:09;1.90;;;0.75;;
9140;SDS011;46330;50.822;7.126;2023-01-04T04:46:39;1.35;;;0.70;;
9140;SDS011;46330;50.822;7.126;2023-01-04T04:49:08;0.30;;;0.30;;
9140;SDS011;46330;50.822;7.126;2023-01-04T04:51:36;1.08;;;0.55;;
9140;SDS011;46330;50.822;7.126;2023-01-04T04:54:04;0.68;;;0.50;;
9140;SDS011;46330;50.822;7.126;2023-01-04T04:56:33;1.50;;;0.98;;
9140;SDS011;46330;50.822;7.126;2023-01-04T04:59:02;1.05;;;0.70;;
9140;SDS011;46330;50.822;7.126;2023-01-04T05:01:32;0.60;;;0.40;;
9140;SDS011;46330;50.822;7.126;2023-01-04T05:04:00;1.08;;;0.60;;
9140;SDS011;46330;50.822;7.126;2023-01-04T05:06:28;1.17;;;0.50;;
9140;SDS011;46330;50.822;7.126;2023-01-04T05:08:56;2.75;;;0.57;;
9140;SDS011;46330;50.822;7.126;2023-01-04T05:11:23;0.82;;;0.40;;
9140;SDS011;46330;50.822;7.126;2023-01-04T05:14:05;1.63;;;0.85;;
9140;SDS011;46330;50.822;7.126;2023-01-04T05:16:34;0.88;;;0.43;;
9140;SDS011;46330;50.822;7.126;2023-01-04T05:19:02;1.10;;;0.60;;
9140;SDS011;46330;50.822;7.126;2023-01-04T05:21:30;0.50;;;0.50;;
9140;SDS011;46330;50.822;7.126;2023-01-04T05:23:58;0.57;;;0.43;;
9140;SDS011;46330;50.822;7.126;2023-01-04T05:26:26;0.75;;;0.32;;
9140;SDS011;46330;50.822;7.126;2023-01-04T05:28:54;0.65;;;0.40;;
9140;SDS011;46330;50.822;7.126;2023-01-04T05:31:22;0.40;;;0.30;;
9140;SDS011;46330;50.822;7.126;2023-01-04T05:33:51;0.75;;;0.35;;
9140;SDS011;46330;50.822;7.126;2023-01-04T05:36:18;1.25;;;0.50;;
9140;SDS011;46330;50.822;7.126;2023-01-04T05:38:46;0.30;;;0.30;;
9140;SDS011;46330;50.822;7.126;2023-01-04T05:41:14;1.20;;;0.43;;
9140;SDS011;46330;50.822;7.126;2023-01-04T05:43:59;0.95;;;0.30;;
9140;SDS011;46330;50.822;7.126;2023-01-04T05:46:27;0.30;;;0.30;;
9140;SDS011;46330;50.822;7.126;2023-01-04T05:48:56;0.40;;;0.40;;
9140;SDS011;46330;50.822;7.126;2023-01-04T05:51:24;0.82;;;0.28;;
9140;SDS011;46330;50.822;7.126;2023-01-04T05:53:52;0.63;;;0.40;;
9140;SDS011;46330;50.822;7.126;2023-01-04T05:56:19;0.70;;;0.50;;
9140;SDS011;46330;50.822;7.126;2023-01-04T05:58:47;0.30;;;0.30;;
9140;SDS011;46330;50.822;7.126;2023-01-04T06:01:15;1.23;;;0.50;;
9140;SDS011;46330;50.822;7.126;2023-01-04T06:03:43;0.55;;;0.30;;
9140;SDS011;46330;50.822;7.126;2023-01-04T06:06:12;1.05;;;0.45;;
9140;SDS011;46330;50.822;7.126;2023-01-04T06:08:40;0.30;;;0.30;;
9140;SDS011;46330;50.822;7.126;2023-01-04T06:11:08;0.50;;;0.50;;
9140;SDS011;46330;50.822;7.126;2023-01-04T06:13:36;1.38;;;0.50;;
9140;SDS011;46330;50.822;7.126;2023-01-04T06:16:04;0.40;;;0.38;;
9140;SDS011;46330;50.822;7.126;2023-01-04T06:18:32;0.73;;;0.50;;
9140;SDS011;46330;50.822;7.126;2023-01-04T06:21:00;2.15;;;0.50;;
9140;SDS011;46330;50.822;7.126;2023-01-04T06:23:29;1.50;;;0.40;;
9140;SDS011;46330;50.822;7.126;2023-01-04T06:25:57;0.30;;;0.30;;
9140;SDS011;46330;50.822;7.126;2023-01-04T06:28:24;0.90;;;0.40;;
9140;SDS011;46330;50.822;7.126;2023-01-04T06:30:52;0.90;;;0.40;;
9140;SDS011;46330;50.822;7.126;2023-01-04T06:33:20;0.17;;;0.17;;
9140;SDS011;46330;50.822;7.126;2023-01-04T06:35:52;0.20;;;0.20;;
9140;SDS011;46330;50.822;7.126;2023-01-04T06:38:20;0.17;;;0.17;;
9140;SDS011;46330;50.822;7.126;2023-01-04T06:40:49;0.25;;;0.25;;
9140;SDS011;46330;50.822;7.126;2023-01-04T06:43:17;0.30;;;0.30;;
9140;SDS011;46330;50.822;7.126;2023-01-04T06:45:45;0.50;;;0.20;;
9140;SDS011;46330;50.822;7.126;2023-01-04T06:48:13;0.20;;;0.20;;
9140;SDS011;46330;50.822;7.126;2023-01-04T06:50:44;0.30;;;0.20;;
9140;SDS011;46330;50.822;7.126;2023-01-04T06:53:12;0.55;;;0.40;;
9140;SDS011;46330;50.822;7.126;2023-01-04T06:55:39;1.20;;;0.40;;
9140;SDS011;46330;50.822;7.126;2023-01-04T06:58:10;0.55;;;0.38;;
9140;SDS011;46330;50.822;7.126;2023-01-04T07:00:38;0.20;;;0.20;;
9140;SDS011;46330;50.822;7.126;2023-01-04T07:03:06;0.40;;;0.40;;
9140;SDS011;46330;50.822;7.126;2023-01-04T07:05:41;0.45;;;0.30;;
9140;SDS011;46330;50.822;7.126;2023-01-04T07:08:09;0.65;;;0.50;;
9140;SDS011;46330;50.822;7.126;2023-01-04T07:10:37;0.85;;;0.45;;
9140;SDS011;46330;50.822;7.126;2023-01-04T07:13:06;0.20;;;0.20;;
9140;SDS011;46330;50.822;7.126;2023-01-04T07:15:36;0.28;;;0.20;;
9140;SDS011;46330;50.822;7.126;2023-01-04T07:18:06;0.60;;;0.50;;
9140;SDS011;46330;50.822;7.126;2023-01-04T07:20:34;0.22;;;0.22;;
9140;SDS011;46330;50.822;7.126;2023-01-04T07:23:02;0.75;;;0.30;;
9140;SDS011;46330;50.822;7.126;2023-01-04T07:25:31;0.30;;;0.25;;
9140;SDS011;46330;50.822;7.126;2023-01-04T07:27:58;0.45;;;0.40;;
9140;SDS011;46330;50.822;7.126;2023-01-04T07:30:26;0.20;;;0.20;;
9140;SDS011;46330;50.822;7.126;2023-01-04T07:32:56;0.20;;;0.20;;
9140;SDS011;46330;50.822;7.126;2023-01-04T07:35:23;0.20;;;0.20;;
9140;SDS011;46330;50.822;7.126;2023-01-04T07:37:51;0.80;;;0.30;;
9140;SDS011;46330;50.822;7.126;2023-01-04T07:40:24;0.40;;;0.30;;
9140;SDS011;46330;50.822;7.126;2023-01-04T07:42:54;0.30;;;0.30;;
9140;SDS011;46330;50.822;7.126;2023-01-04T07:45:23;0.20;;;0.20;;
9140;SDS011;46330;50.822;7.126;2023-01-04T07:47:51;0.60;;;0.30;;
9140;SDS011;46330;50.822;7.126;2023-01-04T07:50:20;0.32;;;0.28;;
9140;SDS011;46330;50.822;7.126;2023-01-04T07:52:48;1.10;;;0.38;;
9140;SDS011;46330;50.822;7.126;2023-01-04T07:55:16;0.30;;;0.30;;
9140;SDS011;46330;50.822;7.126;2023-01-04T07:57:44;0.70;;;0.30;;
9140;SDS011;46330;50.822;7.126;2023-01-04T08:00:12;0.32;;;0.30;;
9140;SDS011;46330;50.822;7.126;2023-01-04T08:02:40;0.50;;;0.30;;
9140;SDS011;46330;50.822;7.126;2023-01-04T08:05:09;0.35;;;0.32;;
9140;SDS011;46330;50.822;7.126;2023-01-04T08:07:38;1.38;;;0.30;;
9140;SDS011;46330;50.822;7.126;2023-01-04T08:10:06;0.52;;;0.25;;
9140;SDS011;46330;50.822;7.126;2023-01-04T08:12:34;0.80;;;0.30;;
9140;SDS011;46330;50.822;7.126;2023-01-04T08:15:02;0.75;;;0.50;;
9140;SDS011;46330;50.822;7.126;2023-01-04T08:17:31;0.50;;;0.40;;
9140;SDS011;46330;50.822;7.126;2023-01-04T08:19:59;0.35;;;0.35;;
9140;SDS011;46330;50.822;7.126;2023-01-04T08:22:27;0.47;;;0.30;;
9140;SDS011;46330;50.822;7.126;2023-01-04T08:24:56;0.40;;;0.40;;
9140;SDS011;46330;50.822;7.126;2023-01-04T08:27:25;1.00;;;0.40;;
9140;SDS011;46330;50.822;7.126;2023-01-04T08:29:52;0.70;;;0.28;;
9140;SDS011;46330;50.822;7.126;2023-01-04T08:32:20;0.52;;;0.35;;
9140;SDS011;46330;50.822;7.126;2023-01-04T08:34:48;0.63;;;0.30;;
9140;SDS011;46330;50.822;7.126;2023-01-04T08:37:16;1.08;;;0.98;;
9140;SDS011;46330;50.822;7.126;2023-01-04T08:39:43;0.30;;;0.30;;
9140;SDS011;46330;50.822;7.126;2023-01-04T08:42:16;0.30;;;0.30;;
9140;SDS011;46330;50.822;7.126;2023-01-04T08:44:55;0.55;;;0.30;;
9140;SDS011;46330;50.822;7.126;2023-01-04T08:47:26;1.23;;;0.50;;
9140;SDS011;46330;50.822;7.126;2023-01-04T08:49:54;0.50;;;0.40;;
9140;SDS011;46330;50.822;7.126;2023-01-04T08:52:22;0.60;;;0.50;;
9140;SDS011;46330;50.822;7.126;2023-01-04T08:54:49;0.90;;;0.73;;
9140;SDS011;46330;50.822;7.126;2023-01-04T08:57:19;2.17;;;0.68;;
9140;SDS011;46330;50.822;7.126;2023-01-04T08:59:47;1.65;;;0.50;;
9140;SDS011;46330;50.822;7.126;2023-01-04T09:02:18;1.08;;;0.50;;
9140;SDS011;46330;50.822;7.126;2023-01-04T09:04:48;0.93;;;0.38;;
9140;SDS011;46330;50.822;7.126;2023-01-04T09:07:16;0.70;;;0.70;;
9140;SDS011;46330;50.822;7.126;2023-01-04T09:09:45;0.40;;;0.40;;
9140;SDS011;46330;50.822;7.126;2023-01-04T09:12:12;1.65;;;0.70;;
9140;SDS011;46330;50.822;7.126;2023-01-04T09:14:41;0.52;;;0.40;;
9140;SDS011;46330;50.822;7.126;2023-01-04T09:17:09;0.40;;;0.40;;
9140;SDS011;46330;50.822;7.126;2023-01-04T09:19:37;0.40;;;0.40;;
9140;SDS011;46330;50.822;7.126;2023-01-04T09:22:05;0.40;;;0.40;;
9140;SDS011;46330;50.822;7.126;2023-01-04T09:24:33;0.90;;;0.77;;
9140;SDS011;46330;50.822;7.126;2023-01-04T09:27:01;0.75;;;0.50;;
9140;SDS011;46330;50.822;7.126;2023-01-04T09:29:30;0.30;;;0.30;;
9140;SDS011;46330;50.822;7.126;2023-01-04T09:31:59;1.45;;;0.47;;
9140;SDS011;46330;50.822;7.126;2023-01-04T09:34:27;0.85;;;0.50;;
9140;SDS011;46330;50.822;7.126;2023-01-04T09:36:55;0.85;;;0.30;;
9140;SDS011;46330;50.822;7.126;2023-01-04T09:39:23;1.23;;;0.50;;
9140;SDS011;46330;50.822;7.126;2023-01-04T09:41:54;1.33;;;0.70;;
9140;SDS011;46330;50.822;7.126;2023-01-04T09:44:34;0.55;;;0.38;;
9140;SDS011;46330;50.822;7.126;2023-01-04T09:47:28;0.47;;;0.47;;
9140;SDS011;46330;50.822;7.126;2023-01-04T09:50:03;0.90;;;0.50;;
9140;SDS011;46330;50.822;7.126;2023-01-04T09:52:41;0.35;;;0.32;;
9140;SDS011;46330;50.822;7.126;2023-01-04T09:55:25;1.15;;;0.63;;
9140;SDS011;46330;50.822;7.126;2023-01-04T09:58:18;0.20;;;0.20;;
9140;SDS011;46330;50.822;7.126;2023-01-04T10:00:50;0.50;;;0.20;;
9140;SDS011;46330;50.822;7.126;2023-01-04T10:03:28;0.55;;;0.30;;
9140;SDS011;46330;50.822;7.126;2023-01-04T10:05:59;0.52;;;0.38;;
9140;SDS011;46330;50.822;7.126;2023-01-04T10:08:28;0.63;;;0.45;;
9140;SDS011;46330;50.822;7.126;2023-01-04T10:11:04;0.73;;;0.43;;
9140;SDS011;46330;50.822;7.126;2023-01-04T10:13:47;0.20;;;0.20;;
9140;SDS011;46330;50.822;7.126;2023-01-04T10:16:31;1.35;;;0.30;;
9140;SDS011;46330;50.822;7.126;2023-01-04T10:19:32;0.30;;;0.30;;
9140;SDS011;46330;50.822;7.126;2023-01-04T10:22:32;0.65;;;0.20;;
9140;SDS011;46330;50.822;7.126;2023-01-04T10:25:16;0.20;;;0.20;;
9140;SDS011;46330;50.822;7.126;2023-01-04T10:27:52;0.60;;;0.50;;
9140;SDS011;46330;50.822;7.126;2023-01-04T10:30:31;0.60;;;0.30;;
9140;SDS011;46330;50.822;7.126;2023-01-04T10:33:09;0.90;;;0.60;;
9140;SDS011;46330;50.822;7.126;2023-01-04T10:35:40;0.10;;;0.10;;
9140;SDS011;46330;50.822;7.126;2023-01-04T10:38:12;0.30;;;0.22;;
9140;SDS011;46330;50.822;7.126;2023-01-04T10:40:43;0.45;;;0.20;;
9140;SDS011;46330;50.822;7.126;2023-01-04T10:43:15;0.85;;;0.20;;
9140;SDS011;46330;50.822;7.126;2023-01-04T10:45:56;0.70;;;0.25;;
9140;SDS011;46330;50.822;7.126;2023-01-04T10:48:31;0.20;;;0.20;;
9140;SDS011;46330;50.822;7.126;2023-01-04T10:51:08;1.08;;;0.57;;
9140;SDS011;46330;50.822;7.126;2023-01-04T10:53:39;1.45;;;0.57;;
9140;SDS011;46330;50.822;7.126;2023-01-04T10:56:14;3.42;;;0.32;;
9140;SDS011;46330;50.822;7.126;2023-01-04T10:58:54;0.47;;;0.22;;
9140;SDS011;46330;50.822;7.126;2023-01-04T11:01:27;0.95;;;0.20;;
9140;SDS011;46330;50.822;7.126;2023-01-04T11:04:01;2.20;;;0.50;;
9140;SDS011;46330;50.822;7.126;2023-01-04T11:06:37;0.20;;;0.20;;
9140;SDS011;46330;50.822;7.126;2023-01-04T11:09:10;0.40;;;0.40;;
9140;SDS011;46330;50.822;7.126;2023-01-04T11:11:50;1.42;;;0.50;;
9140;SDS011;46330;50.822;7.126;2023-01-04T11:14:22;0.57;;;0.30;;
9140;SDS011;46330;50.822;7.126;2023-01-04T11:16:56;0.38;;;0.28;;
9140;SDS011;46330;50.822;7.126;2023-01-04T11:19:27;0.73;;;0.50;;
9140;SDS011;46330;50.822;7.126;2023-01-04T11:21:58;1.23;;;0.50;;
9140;SDS011;46330;50.822;7.126;2023-01-04T11:24:31;0.40;;;0.40;;
9140;SDS011;46330;50.822;7.126;2023-01-04T11:27:04;1.45;;;0.50;;
9140;SDS011;46330;50.822;7.126;2023-01-04T11:29:34;0.85;;;0.40;;
9140;SDS011;46330;50.822;7.126;2023-01-04T11:32:13;0.50;;;0.50;;
9140;SDS011;46330;50.822;7.126;2023-01-04T11:34:47;0.52;;;0.43;;
9140;SDS011;46330;50.822;7.126;2023-01-04T11:37:26;0.50;;;0.40;;
9140;SDS011;46330;50.822;7.126;2023-01-04T11:42:47;0.47;;;0.35;;
9140;SDS011;46330;50.822;7.126;2023-01-04T11:45:17;0.82;;;0.30;;
9140;SDS011;46330;50.822;7.126;2023-01-04T11:47:48;0.68;;;0.32;;
9140;SDS011;46330;50.822;7.126;2023-01-04T11:50:32;0.32;;;0.30;;
9140;SDS011;46330;50.822;7.126;2023-01-04T11:53:02;0.68;;;0.40;;
9140;SDS011;46330;50.822;7.126;2023-01-04T11:55:50;1.02;;;0.43;;
9140;SDS011;46330;50.822;7.126;2023-01-04T11:58:18;1.05;;;0.40;;
9140;SDS011;46330;50.822;7.126;2023-01-04T12:00:50;0.50;;;0.38;;
9140;SDS011;46330;50.822;7.126;2023-01-04T12:03:22;1.67;;;0.50;;
9140;SDS011;46330;50.822;7.126;2023-01-04T12:05:53;0.77;;;0.45;;
9140;SDS011;46330;50.822;7.126;2023-01-04T12:08:26;0.40;;;0.40;;
9140;SDS011;46330;50.822;7.126;2023-01-04T12:10:57;1.52;;;0.60;;
9140;SDS011;46330;50.822;7.126;2023-01-04T12:13:26;0.30;;;0.30;;
9140;SDS011;46330;50.822;7.126;2023-01-04T12:15:57;0.88;;;0.40;;
9140;SDS011;46330;50.822;7.126;2023-01-04T12:18:33;0.75;;;0.40;;
9140;SDS011;46330;50.822;7.126;2023-01-04T12:21:02;0.80;;;0.40;;
9140;SDS011;46330;50.822;7.126;2023-01-04T12:23:32;0.75;;;0.50;;
9140;SDS011;46330;50.822;7.126;2023-01-04T12:26:00;0.25;;;0.20;;
9140;SDS011;46330;50.822;7.126;2023-01-04T12:28:32;1.40;;;0.55;;
9140;SDS011;46330;50.822;7.126;2023-01-04T12:33:57;0.20;;;0.20;;
9140;SDS011;46330;50.822;7.126;2023-01-04T12:42:20;0.50;;;0.40;;
9140;SDS011;46330;50.822;7.126;2023-01-04T12:47:48;0.63;;;0.40;;
9140;SDS011;46330;50.822;7.126;2023-01-04T12:54:00;0.95;;;0.60;;
9140;SDS011;46330;50.822;7.126;2023-01-04T12:59:52;0.60;;;0.40;;
9140;SDS011;46330;50.822;7.126;2023-01-04T13:02:22;0.85;;;0.50;;
9140;SDS011;46330;50.822;7.126;2023-01-04T13:04:52;0.30;;;0.30;;
9140;SDS011;46330;50.822;7.126;2023-01-04T13:07:40;0.88;;;0.43;;
9140;SDS011;46330;50.822;7.126;2023-01-04T13:10:20;0.47;;;0.30;;
9140;SDS011;46330;50.822;7.126;2023-01-04T13:13:04;0.40;;;0.40;;
9140;SDS011;46330;50.822;7.126;2023-01-04T13:15:53;1.42;;;0.50;;
9140;SDS011;46330;50.822;7.126;2023-01-04T13:18:32;1.23;;;0.60;;
9140;SDS011;46330;50.822;7.126;2023-01-04T13:21:02;2.10;;;0.43;;
9140;SDS011;46330;50.822;7.126;2023-01-04T13:23:37;1.55;;;0.70;;
9140;SDS011;46330;50.822;7.126;2023-01-04T13:29:07;0.68;;;0.60;;
9140;SDS011;46330;50.822;7.126;2023-01-04T13:31:41;0.30;;;0.30;;
9140;SDS011;46330;50.822;7.126;2023-01-04T13:34:18;0.45;;;0.20;;
9140;SDS011;46330;50.822;7.126;2023-01-04T13:36:52;2.80;;;0.55;;
9140;SDS011;46330;50.822;7.126;2023-01-04T13:39:22;0.73;;;0.30;;
9140;SDS011;46330;50.822;7.126;2023-01-04T13:41:50;0.20;;;0.20;;
9140;SDS011;46330;50.822;7.126;2023-01-04T13:44:23;0.30;;;0.30;;
9140;SDS011;46330;50.822;7.126;2023-01-04T13:47:20;1.65;;;0.40;;
9140;SDS011;46330;50.822;7.126;2023-01-04T13:49:48;2.75;;;0.50;;
9140;SDS011;46330;50.822;7.126;2023-01-04T13:52:19;1.33;;;0.40;;
9140;SDS011;46330;50.822;7.126;2023-01-04T13:55:12;0.30;;;0.30;;
9140;SDS011;46330;50.822;7.126;2023-01-04T13:57:52;0.38;;;0.30;;
9140;SDS011;46330;50.822;7.126;2023-01-04T14:00:22;0.35;;;0.30;;
9140;SDS011;46330;50.822;7.126;2023-01-04T14:03:05;0.32;;;0.30;;
9140;SDS011;46330;50.822;7.126;2023-01-04T14:05:44;0.22;;;0.22;;
9140;SDS011;46330;50.822;7.126;2023-01-04T14:08:17;0.95;;;0.30;;
9140;SDS011;46330;50.822;7.126;2023-01-04T14:10:50;0.65;;;0.30;;
9140;SDS011;46330;50.822;7.126;2023-01-04T14:13:18;0.30;;;0.30;;
9140;SDS011;46330;50.822;7.126;2023-01-04T14:15:48;0.28;;;0.20;;
9140;SDS011;46330;50.822;7.126;2023-01-04T14:18:30;1.00;;;0.30;;
9140;SDS011;46330;50.822;7.126;2023-01-04T14:20:58;0.40;;;0.20;;
9140;SDS011;46330;50.822;7.126;2023-01-04T14:23:27;0.50;;;0.20;;
9140;SDS011;46330;50.822;7.126;2023-01-04T14:25:59;0.20;;;0.20;;
9140;SDS011;46330;50.822;7.126;2023-01-04T14:28:39;0.73;;;0.20;;
9140;SDS011;46330;50.822;7.126;2023-01-04T14:34:04;1.13;;;0.47;;
9140;SDS011;46330;50.822;7.126;2023-01-04T14:36:34;0.20;;;0.20;;
9140;SDS011;46330;50.822;7.126;2023-01-04T14:39:23;0.20;;;0.20;;
9140;SDS011;46330;50.822;7.126;2023-01-04T14:41:55;0.32;;;0.20;;
9140;SDS011;46330;50.822;7.126;2023-01-04T14:44:25;0.45;;;0.20;;
9140;SDS011;46330;50.822;7.126;2023-01-04T14:46:58;0.13;;;0.13;;
9140;SDS011;46330;50.822;7.126;2023-01-04T14:49:26;1.60;;;0.30;;
9140;SDS011;46330;50.822;7.126;2023-01-04T14:51:55;0.25;;;0.25;;
9140;SDS011;46330;50.822;7.126;2023-01-04T14:54:25;0.20;;;0.20;;
9140;SDS011;46330;50.822;7.126;2023-01-04T14:56:55;0.55;;;0.40;;
9140;SDS011;46330;50.822;7.126;2023-01-04T14:59:24;1.00;;;0.45;;
9140;SDS011;46330;50.822;7.126;2023-01-04T15:01:54;0.30;;;0.30;;
9140;SDS011;46330;50.822;7.126;2023-01-04T15:04:24;0.40;;;0.40;;
9140;SDS011;46330;50.822;7.126;2023-01-04T15:06:53;0.70;;;0.50;;
9140;SDS011;46330;50.822;7.126;2023-01-04T15:09:22;2.05;;;0.60;;
9140;SDS011;46330;50.822;7.126;2023-01-04T15:11:50;0.77;;;0.50;;
9140;SDS011;46330;50.822;7.126;2023-01-04T15:14:18;0.88;;;0.30;;
9140;SDS011;46330;50.822;7.126;2023-01-04T15:16:46;1.00;;;0.40;;
9140;SDS011;46330;50.822;7.126;2023-01-04T15:19:14;0.68;;;0.40;;
9140;SDS011;46330;50.822;7.126;2023-01-04T15:21:44;0.30;;;0.30;;
9140;SDS011;46330;50.822;7.126;2023-01-04T15:24:12;1.73;;;1.38;;
9140;SDS011;46330;50.822;7.126;2023-01-04T15:26:39;1.55;;;1.17;;
9140;SDS011;46330;50.822;7.126;2023-01-04T15:29:08;2.55;;;1.30;;
9140;SDS011;46330;50.822;7.126;2023-01-04T15:31:36;1.73;;;1.42;;
9140;SDS011;46330;50.822;7.126;2023-01-04T15:34:07;1.00;;;0.90;;
9140;SDS011;46330;50.822;7.126;2023-01-04T15:36:36;1.23;;;1.13;;
9140;SDS011;46330;50.822;7.126;2023-01-04T15:39:08;4.40;;;1.60;;
9140;SDS011;46330;50.822;7.126;2023-01-04T15:41:39;5.13;;;2.03;;
9140;SDS011;46330;50.822;7.126;2023-01-04T15:44:24;2.63;;;1.95;;
9140;SDS011;46330;50.822;7.126;2023-01-04T15:46:52;7.47;;;3.53;;
9140;SDS011;46330;50.822;7.126;2023-01-04T15:49:20;3.45;;;2.60;;
9140;SDS011;46330;50.822;7.126;2023-01-04T15:51:48;4.93;;;3.13;;
9140;SDS011;46330;50.822;7.126;2023-01-04T15:54:17;6.97;;;5.60;;
9140;SDS011;46330;50.822;7.126;2023-01-04T15:56:47;7.00;;;4.47;;
9140;SDS011;46330;50.822;7.126;2023-01-04T15:59:15;7.65;;;4.25;;
9140;SDS011;46330;50.822;7.126;2023-01-04T16:01:43;5.13;;;2.88;;
9140;SDS011;46330;50.822;7.126;2023-01-04T16:04:12;4.13;;;2.50;;
9140;SDS011;46330;50.822;7.126;2023-01-04T16:06:40;3.00;;;1.85;;
9140;SDS011;46330;50.822;7.126;2023-01-04T16:09:08;2.28;;;1.50;;
9140;SDS011;46330;50.822;7.126;2023-01-04T16:11:37;1.92;;;1.20;;